Time;durP1;ratioP1;P1;durP2;ratioP2;P2;SDS_P1;SDS_P2;PMS_P1;PMS_P2;Temp;Humidity;BMP_temperature;BMP_pressure;BME280_temperature;BME280_humidity;BME280_pressure;Samples;Min_cycle;Max_cycle;Signal;HPM_P1;HPM_P2
2023/09/13 00:02:14;;;;;;;5.32;3.10;;;;;;;20.45;100.00;100498.09;5027539;28;20156;-62
2023/09/13 00:04:39;;;;;;;5.55;3.13;;;;;;;20.47;100.00;100491.00;5032065;28;20458;-60
2023/09/13 00:07:05;;;;;;;7.13;2.90;;;;;;;20.46;100.00;100500.41;5026761;28;20037;-62
2023/09/13 00:09:30;;;;;;;6.05;2.78;;;;;;;20.41;100.00;100505.63;5015637;28;20033;-62
2023/09/13 00:11:56;;;;;;;5.53;2.92;;;;;;;20.41;100.00;100502.88;5007602;28;20460;-63
2023/09/13 00:14:21;;;;;;;7.18;2.40;;;;;;;20.39;100.00;100500.56;5031554;28;20052;-63
2023/09/13 00:16:47;;;;;;;4.38;2.53;;;;;;;20.40;100.00;100493.13;5029158;28;20112;-63
2023/09/13 00:19:12;;;;;;;3.95;2.67;;;;;;;20.41;100.00;100495.44;5030353;28;20052;-63
2023/09/13 00:21:40;;;;;;;8.00;2.83;;;;;;;20.39;100.00;100497.84;5031469;28;20033;-63
2023/09/13 00:24:07;;;;;;;4.55;2.78;;;;;;;20.43;100.00;100497.75;5027759;28;20029;-63
2023/09/13 00:26:33;;;;;;;4.47;2.42;;;;;;;20.42;100.00;100490.75;5013744;28;20018;-63
2023/09/13 00:28:59;;;;;;;7.60;3.22;;;;;;;20.37;100.00;100485.75;5027876;28;20037;-63
2023/09/13 00:31:24;;;;;;;4.90;2.50;;;;;;;20.33;100.00;100480.38;5012725;28;20045;-62
2023/09/13 00:33:51;;;;;;;4.53;2.45;;;;;;;20.34;100.00;100478.41;5037222;28;20037;-63
2023/09/13 00:36:16;;;;;;;5.45;3.00;;;;;;;20.30;100.00;100478.50;5012810;28;20677;-63
2023/09/13 00:38:41;;;;;;;6.65;3.28;;;;;;;20.32;100.00;100472.59;5023919;28;20021;-63
2023/09/13 00:41:07;;;;;;;6.03;3.20;;;;;;;20.30;100.00;100473.03;5024502;28;20511;-63
2023/09/13 00:43:33;;;;;;;5.90;3.30;;;;;;;20.38;100.00;100470.91;5027622;28;20035;-63
2023/09/13 00:45:59;;;;;;;6.22;2.75;;;;;;;20.41;100.00;100475.50;5030465;28;20500;-63
2023/09/13 00:48:26;;;;;;;3.63;2.25;;;;;;;20.42;100.00;100474.34;5012824;28;20026;-63
2023/09/13 00:50:54;;;;;;;5.57;3.00;;;;;;;20.42;100.00;100479.81;5014047;28;20029;-63
2023/09/13 00:53:21;;;;;;;5.75;3.10;;;;;;;20.40;100.00;100476.72;5023756;28;20041;-63
2023/09/13 00:55:49;;;;;;;4.10;2.65;;;;;;;20.41;100.00;100481.75;5003478;28;20028;-63
2023/09/13 00:58:15;;;;;;;5.30;2.72;;;;;;;20.44;100.00;100480.91;5027750;28;20115;-63
2023/09/13 01:00:41;;;;;;;5.15;2.53;;;;;;;20.46;100.00;100489.44;5025823;28;20127;-63
2023/09/13 01:03:06;;;;;;;7.28;3.40;;;;;;;;;;5004279;28;20049;-63
2023/09/13 01:05:35;;;;;;;8.50;3.63;;;;;;;20.48;100.00;100495.28;4996139;28;20481;-63
2023/09/13 01:08:01;;;;;;;5.45;3.47;;;;;;;20.54;100.00;100488.09;5009894;28;20048;-63
2023/09/13 01:10:26;;;;;;;6.18;3.00;;;;;;;20.52;100.00;100484.25;5003712;28;20037;-63
2023/09/13 01:12:51;;;;;;;5.50;2.88;;;;;;;20.51;100.00;100483.50;5014145;28;20120;-63
2023/09/13 01:15:17;;;;;;;8.95;3.67;;;;;;;20.43;100.00;100476.63;5023795;28;20465;-64
2023/09/13 01:17:46;;;;;;;6.55;3.15;;;;;;;20.42;100.00;100474.34;5008605;28;20485;-64
2023/09/13 01:20:25;;;;;;;4.22;2.83;;;;;;;20.30;100.00;100475.00;5023646;28;20037;-63
2023/09/13 01:23:23;;;;;;;5.53;2.45;;;;;;;20.32;100.00;100475.34;5017407;28;20040;-63
2023/09/13 01:26:13;;;;;;;5.70;2.28;;;;;;;20.35;100.00;100474.47;5007464;28;20037;-63
2023/09/13 01:28:44;;;;;;;5.65;2.72;;;;;;;20.37;100.00;100463.88;5008245;28;20052;-63
2023/09/13 01:31:10;;;;;;;5.72;2.80;;;;;;;20.31;100.00;100469.09;5009487;28;20048;-63
2023/09/13 01:33:37;;;;;;;6.32;2.55;;;;;;;20.35;100.00;100471.75;5018248;28;20485;-63
2023/09/13 01:36:03;;;;;;;5.68;2.30;;;;;;;20.17;100.00;100468.63;5012454;28;20045;-63
2023/09/13 01:38:29;;;;;;;3.85;2.28;;;;;;;20.20;100.00;100467.78;5027781;28;20069;-62
2023/09/13 01:41:04;;;;;;;5.53;2.67;;;;;;;20.29;100.00;100471.47;5026459;28;20064;-62
2023/09/13 01:43:31;;;;;;;6.38;3.15;;;;;;;20.29;100.00;100471.47;5009038;28;20398;-61
2023/09/13 01:45:58;;;;;;;7.72;2.90;;;;;;;20.29;100.00;100474.22;5012455;28;20037;-61
2023/09/13 01:48:24;;;;;;;7.63;3.30;;;;;;;20.27;100.00;100467.63;5029173;28;20048;-61
2023/09/13 01:50:51;;;;;;;6.75;3.22;;;;;;;20.35;100.00;100469.00;5007887;28;20459;-59
2023/09/13 01:53:17;;;;;;;6.75;3.15;;;;;;;20.37;100.00;100464.66;4999370;28;20152;-62
2023/09/13 01:55:42;;;;;;;9.27;4.07;;;;;;;20.44;100.00;100471.94;5008116;28;20397;-62
2023/09/13 01:58:08;;;;;;;7.75;3.47;;;;;;;20.49;100.00;100469.47;5028773;28;20033;-62
2023/09/13 02:00:34;;;;;;;12.25;4.53;;;;;;;20.52;100.00;100473.28;5010465;28;20049;-60
2023/09/13 02:03:00;;;;;;;8.93;4.30;;;;;;;20.58;100.00;100471.59;5001582;28;20111;-61
2023/09/13 02:05:26;;;;;;;7.85;4.25;;;;;;;20.61;100.00;100463.28;5026269;28;20413;-62
2023/09/13 02:07:51;;;;;;;7.95;4.07;;;;;;;20.68;100.00;100463.13;5004637;28;20446;-62
2023/09/13 02:10:16;;;;;;;11.25;4.15;;;;;;;20.70;100.00;100459.97;5021540;28;20029;-61
2023/09/13 02:12:42;;;;;;;8.07;3.55;;;;;;;20.68;100.00;100456.88;5007569;28;20037;-62
2023/09/13 02:15:08;;;;;;;6.82;3.33;;;;;;;20.64;100.00;100459.72;5027033;28;20041;-61
2023/09/13 02:17:33;;;;;;;8.32;3.67;;;;;;;20.68;100.00;100448.69;5024109;28;20038;-62
2023/09/13 02:19:59;;;;;;;7.28;3.20;;;;;;;20.69;100.00;100440.03;5010794;28;20482;-62
2023/09/13 02:22:24;;;;;;;9.63;4.20;;;;;;;20.72;100.00;100449.34;5017447;28;20042;-62
2023/09/13 02:24:49;;;;;;;9.70;4.05;;;;;;;20.71;100.00;100430.63;5023042;28;20032;-61
2023/09/13 02:27:15;;;;;;;8.38;4.05;;;;;;;20.73;100.00;100430.97;5029078;28;20029;-61
2023/09/13 02:29:40;;;;;;;8.35;4.25;;;;;;;20.73;100.00;100428.97;5029432;28;20117;-62
2023/09/13 02:32:06;;;;;;;8.85;4.28;;;;;;;20.76;100.00;100433.63;5017097;28;20994;-61
2023/09/13 02:34:32;;;;;;;9.55;4.35;;;;;;;20.79;100.00;100432.00;5015602;28;20025;-62
2023/09/13 02:36:58;;;;;;;11.32;5.15;;;;;;;20.77;100.00;100421.47;5029152;28;20056;-62
2023/09/13 02:39:35;;;;;;;12.85;5.18;;;;;;;20.73;100.00;100423.50;5009286;28;20053;-64
2023/09/13 02:42:02;;;;;;;8.95;4.68;;;;;;;20.75;100.00;100425.84;5024855;28;20056;-62
2023/09/13 02:44:28;;;;;;;9.23;3.92;;;;;;;20.80;100.00;100417.09;5026079;28;20033;-60
2023/09/13 02:46:53;;;;;;;7.88;3.63;;;;;;;20.85;100.00;100419.34;5027665;28;20025;-61
2023/09/13 02:49:19;;;;;;;12.25;4.40;;;;;;;20.86;100.00;100413.41;5009497;28;20029;-60
2023/09/13 02:51:48;;;;;;;7.97;4.32;;;;;;;20.86;100.00;100407.16;5029268;28;20037;-62
2023/09/13 02:54:14;;;;;;;12.13;4.22;;;;;;;20.89;100.00;100417.25;5014265;28;20060;-65
2023/09/13 02:56:40;;;;;;;10.30;4.55;;;;;;;20.92;100.00;100416.41;5009648;28;20036;-60
2023/09/13 02:59:06;;;;;;;8.40;3.53;;;;;;;20.92;100.00;100411.69;5005797;28;20033;-60
2023/09/13 03:01:31;;;;;;;7.40;3.70;;;;;;;20.94;100.00;100412.03;5026525;28;20029;-66
2023/09/13 03:03:57;;;;;;;8.73;4.20;;;;;;;20.93;100.00;100413.22;5029476;28;20037;-60
2023/09/13 03:06:23;;;;;;;9.73;3.47;;;;;;;20.93;100.00;100412.44;5014629;28;20033;-61
2023/09/13 03:08:48;;;;;;;6.65;3.25;;;;;;;20.92;100.00;100405.44;5015674;28;20027;-62
2023/09/13 03:11:16;;;;;;;6.28;3.83;;;;;;;20.94;100.00;100401.09;5030096;28;20437;-63
2023/09/13 03:13:43;;;;;;;7.43;3.53;;;;;;;20.92;100.00;100399.97;5011091;28;20040;-59
2023/09/13 03:16:16;;;;;;;7.82;3.75;;;;;;;20.90;100.00;100394.94;5014555;28;20079;-63
2023/09/13 03:18:43;;;;;;;5.18;2.90;;;;;;;20.91;100.00;100401.16;5014046;28;20026;-63
2023/09/13 03:21:11;;;;;;;8.63;3.72;;;;;;;20.91;100.00;100390.97;5015799;28;20072;-63
2023/09/13 03:23:39;;;;;;;9.32;3.83;;;;;;;20.93;100.00;100398.75;5015135;28;20500;-64
2023/09/13 03:26:22;;;;;;;8.15;3.80;;;;;;;20.91;100.00;100398.41;5012672;28;20034;-63
2023/09/13 03:28:53;;;;;;;7.53;3.60;;;;;;;20.94;100.00;100395.63;5009650;28;20026;-63
2023/09/13 03:31:21;;;;;;;7.65;2.92;;;;;;;20.97;100.00;100400.22;5009263;28;20041;-63
2023/09/13 03:33:48;;;;;;;11.07;3.92;;;;;;;20.96;100.00;100387.75;5005788;28;20065;-63
2023/09/13 03:36:15;;;;;;;5.82;3.30;;;;;;;20.94;100.00;100394.84;5006071;28;20120;-63
2023/09/13 03:38:44;;;;;;;5.60;3.05;;;;;;;20.95;100.00;100390.88;5005509;28;20034;-63
2023/09/13 03:41:17;;;;;;;7.53;3.13;;;;;;;20.98;100.00;100390.03;5026396;28;20494;-63
2023/09/13 03:43:46;;;;;;;4.55;2.45;;;;;;;20.98;100.00;100390.03;5029739;28;20036;-64
2023/09/13 03:46:11;;;;;;;8.75;3.05;;;;;;;20.97;100.00;100389.25;5014554;28;20021;-63
2023/09/13 03:48:39;;;;;;;4.60;2.85;;;;;;;20.98;100.00;100388.03;5010337;28;20120;-63
2023/09/13 03:51:05;;;;;;;7.30;3.08;;;;;;;20.98;100.00;100374.34;5032278;28;20037;-62
2023/09/13 03:53:31;;;;;;;5.25;3.00;;;;;;;21.01;100.00;100383.72;5006937;28;20029;-63
2023/09/13 03:55:58;;;;;;;4.78;2.60;;;;;;;21.01;100.00;100384.50;5012220;28;20037;-63
2023/09/13 03:58:28;;;;;;;5.55;2.78;;;;;;;21.00;100.00;100382.91;5001160;28;20124;-62
2023/09/13 04:00:55;;;;;;;5.07;2.97;;;;;;;21.00;100.00;100382.16;5013859;28;20041;-62
2023/09/13 04:03:21;;;;;;;5.95;2.60;;;;;;;21.01;100.00;100384.50;5033883;28;20106;-64
2023/09/13 04:05:47;;;;;;;6.32;3.22;;;;;;;21.00;100.00;100382.16;5011908;28;20502;-63
2023/09/13 04:08:12;;;;;;;5.30;2.55;;;;;;;21.00;100.00;100377.44;5005214;28;20112;-63
2023/09/13 04:10:43;;;;;;;6.65;3.28;;;;;;;21.01;100.00;100375.50;5011870;28;20026;-64
2023/09/13 04:13:08;;;;;;;5.35;2.75;;;;;;;20.99;100.00;100369.66;5003198;28;20033;-64
2023/09/13 04:15:34;;;;;;;7.22;3.08;;;;;;;21.00;100.00;100377.44;5007432;28;20047;-63
2023/09/13 04:17:59;;;;;;;4.30;2.67;;;;;;;21.04;100.00;100389.09;5008320;28;20529;-64
2023/09/13 04:20:25;;;;;;;5.53;2.58;;;;;;;21.05;100.00;100392.59;5011438;28;20026;-63
2023/09/13 04:22:50;;;;;;;6.55;2.80;;;;;;;21.04;100.00;100385.59;5022322;28;20033;-64
2023/09/13 04:25:16;;;;;;;4.28;2.55;;;;;;;21.02;100.00;100383.28;5009366;28;20033;-64
2023/09/13 04:27:44;;;;;;;4.30;2.10;;;;;;;21.04;100.00;100383.63;5005451;28;20621;-64
2023/09/13 04:30:10;;;;;;;5.65;2.40;;;;;;;21.03;100.00;100387.56;5010739;28;20025;-63
2023/09/13 04:32:38;;;;;;;4.53;2.33;;;;;;;21.04;100.00;100391.81;5005284;28;20116;-64
2023/09/13 04:35:04;;;;;;;8.07;3.15;;;;;;;21.06;100.00;100383.94;5016981;28;20096;-63
2023/09/13 04:37:30;;;;;;;6.68;2.67;;;;;;;21.05;100.00;100393.38;5013284;28;20449;-64
2023/09/13 04:39:58;;;;;;;4.05;2.30;;;;;;;21.05;100.00;100390.66;5019529;28;20030;-64
2023/09/13 04:42:23;;;;;;;5.03;2.80;;;;;;;21.03;100.00;100395.00;5000819;28;20033;-63
2023/09/13 04:44:49;;;;;;;5.28;2.35;;;;;;;21.06;100.00;100405.13;5005952;28;20029;-63
2023/09/13 04:47:17;;;;;;;4.70;2.28;;;;;;;21.06;100.00;100405.88;5004499;28;20034;-64
2023/09/13 04:49:42;;;;;;;5.35;2.78;;;;;;;21.02;100.00;100407.91;5006806;28;20041;-64
2023/09/13 04:52:10;;;;;;;4.55;2.00;;;;;;;21.04;100.00;100411.00;5009331;28;20037;-64
2023/09/13 04:54:36;;;;;;;5.10;2.55;;;;;;;21.06;100.00;100416.81;5015706;28;20384;-64
2023/09/13 04:57:05;;;;;;;6.35;2.67;;;;;;;21.05;100.00;100418.03;5010206;28;20025;-62
2023/09/13 04:59:44;;;;;;;5.90;2.80;;;;;;;21.05;100.00;100414.53;5007167;28;20116;-62
2023/09/13 05:02:11;;;;;;;5.57;2.75;;;;;;;21.04;100.00;100421.97;5018151;28;20073;-63
2023/09/13 05:04:40;;;;;;;4.70;2.15;;;;;;;21.07;100.00;100426.59;5025996;28;20017;-63
2023/09/13 05:07:07;;;;;;;6.07;2.47;;;;;;;21.04;100.00;100430.16;5006207;28;20048;-63
2023/09/13 05:09:33;;;;;;;5.03;2.25;;;;;;;21.06;100.00;100430.50;5028162;28;20086;-63
2023/09/13 05:11:59;;;;;;;8.45;2.92;;;;;;;21.08;100.00;100432.84;5021350;28;20104;-63
2023/09/13 05:14:25;;;;;;;4.43;2.25;;;;;;;21.10;100.00;100438.66;5033314;28;20490;-63
2023/09/13 05:16:51;;;;;;;5.00;2.10;;;;;;;21.10;100.00;100436.66;5024921;28;20025;-61
2023/09/13 05:19:18;;;;;;;3.28;1.73;;;;;;;21.10;100.00;100446.88;5036125;22;20903;-67
2023/09/13 05:21:43;;;;;;;4.88;2.17;;;;;;;21.12;100.00;100452.66;5028507;28;20063;-67
2023/09/13 05:24:08;;;;;;;3.38;1.23;;;;;;;21.09;100.00;100445.31;5030804;28;20537;-66
2023/09/13 05:26:35;;;;;;;2.15;0.98;;;;;;;21.09;100.00;100451.59;5028531;28;20141;-65
2023/09/13 05:29:02;;;;;;;1.55;0.82;;;;;;;21.04;100.00;100448.59;5020401;28;20033;-65
2023/09/13 05:31:27;;;;;;;0.82;0.60;;;;;;;20.98;100.00;100458.50;5034935;28;20041;-66
2023/09/13 05:33:53;;;;;;;0.68;0.50;;;;;;;20.89;100.00;100459.09;5005029;28;20036;-67
2023/09/13 05:36:18;;;;;;;0.90;0.80;;;;;;;20.88;100.00;100463.06;5019888;28;20041;-68
2023/09/13 05:38:44;;;;;;;0.80;0.50;;;;;;;20.86;100.00;100465.44;5031212;28;20017;-66
2023/09/13 05:41:10;;;;;;;1.33;0.80;;;;;;;20.84;100.00;100467.84;5027957;28;20042;-66
2023/09/13 05:43:37;;;;;;;1.13;0.47;;;;;;;20.82;100.00;100472.97;5020985;28;20022;-66
2023/09/13 05:46:03;;;;;;;2.47;0.70;;;;;;;20.75;100.00;100475.88;5027158;28;20732;-69
2023/09/13 05:48:28;;;;;;;0.50;0.43;;;;;;;20.76;100.00;100476.66;5030121;28;20028;-66
2023/09/13 05:50:54;;;;;;;0.73;0.55;;;;;;;20.70;100.00;100479.13;5034113;28;20035;-68
2023/09/13 05:53:20;;;;;;;0.52;0.45;;;;;;;20.68;100.00;100481.53;5028668;28;20030;-67
2023/09/13 05:55:49;;;;;;;1.70;0.70;;;;;;;20.64;100.00;100480.84;5029857;28;20128;-68
2023/09/13 05:58:14;;;;;;;1.00;0.75;;;;;;;20.69;100.00;100477.59;5014324;28;20068;-67
2023/09/13 06:00:45;;;;;;;0.73;0.60;;;;;;;20.65;100.00;100485.13;5031659;28;20072;-66
2023/09/13 06:03:11;;;;;;;2.80;0.77;;;;;;;20.64;100.00;100486.31;5030322;28;20478;-67
2023/09/13 06:05:36;;;;;;;1.05;0.80;;;;;;;20.59;100.00;100484.88;5028592;28;20109;-67
2023/09/13 06:08:02;;;;;;;3.10;0.73;;;;;;;20.54;100.00;100488.09;5026096;28;20029;-67
2023/09/13 06:10:27;;;;;;;1.63;0.80;;;;;;;20.55;100.00;100495.13;5028115;28;20120;-67
2023/09/13 06:12:53;;;;;;;3.45;0.73;;;;;;;20.43;100.00;100495.00;5032383;28;20033;-67
2023/09/13 06:15:19;;;;;;;1.00;0.80;;;;;;;20.41;100.00;100505.63;5022136;28;20030;-66
2023/09/13 06:17:47;;;;;;;0.65;0.40;;;;;;;20.41;100.00;100500.13;5018002;28;20478;-66
2023/09/13 06:20:12;;;;;;;1.50;0.45;;;;;;;20.33;100.00;100502.25;5025959;28;20065;-65
2023/09/13 06:22:38;;;;;;;0.63;0.60;;;;;;;20.39;100.00;100503.31;5030517;28;20409;-66
2023/09/13 06:25:04;;;;;;;0.45;0.38;;;;;;;20.21;100.00;100508.38;5026278;28;20483;-66
2023/09/13 06:27:29;;;;;;;0.65;0.43;;;;;;;20.27;100.00;100503.97;5020180;28;20029;-65
2023/09/13 06:29:55;;;;;;;0.88;0.40;;;;;;;20.29;100.00;100503.53;5029849;28;20034;-66
2023/09/13 06:32:41;;;;;;;2.00;0.70;;;;;;;20.31;100.00;100510.13;5028534;28;20061;-65
2023/09/13 06:35:11;;;;;;;0.30;0.30;;;;;;;20.34;100.00;100517.47;4928845;29;21072;-67
2023/09/13 06:37:36;;;;;;;4.07;0.82;;;;;;;20.34;100.00;100522.94;4926690;29;20517;-66
2023/09/13 06:40:03;;;;;;;1.00;0.47;;;;;;;20.30;100.00;100522.28;4928628;29;20107;-67
2023/09/13 06:42:48;;;;;;;1.02;0.70;;;;;;;20.38;100.00;100528.38;4928994;29;20043;-66
2023/09/13 06:45:14;;;;;;;0.80;0.57;;;;;;;20.41;100.00;100531.00;4854463;29;20059;-66
2023/09/13 06:47:39;;;;;;;0.47;0.47;;;;;;;20.36;100.00;100517.81;4848800;29;20461;-65
2023/09/13 06:50:05;;;;;;;0.50;0.43;;;;;;;20.37;100.00;100532.28;4854852;29;20067;-66
2023/09/13 06:52:31;;;;;;;1.33;0.47;;;;;;;20.34;100.00;100528.41;4852193;29;20510;-65
2023/09/13 06:54:56;;;;;;;1.00;0.30;;;;;;;20.36;100.00;100531.50;4858191;29;20029;-65
2023/09/13 06:57:21;;;;;;;1.75;0.80;;;;;;;20.39;100.00;100532.63;4853406;29;20120;-65
2023/09/13 06:59:47;;;;;;;0.57;0.30;;;;;;;20.40;100.00;100537.66;4852023;29;20064;-65
2023/09/13 07:02:12;;;;;;;0.30;0.30;;;;;;;20.41;100.00;100531.00;4852268;29;20076;-65
2023/09/13 07:04:38;;;;;;;0.22;0.13;;;;;;;20.35;100.00;100548.34;4855533;29;20042;-66
2023/09/13 07:07:04;;;;;;;0.20;0.20;;;;;;;20.36;100.00;100547.16;4850626;29;20033;-66
2023/09/13 07:09:29;;;;;;;0.10;0.00;;;;;;;20.25;100.00;100552.84;4852490;29;20057;-65
2023/09/13 07:11:55;;;;;;;0.88;0.20;;;;;;;20.25;100.00;100552.06;4888335;28;20427;-65
2023/09/13 07:14:20;;;;;;;0.88;0.30;;;;;;;20.22;100.00;100561.91;4945654;28;20039;-66
2023/09/13 07:16:45;;;;;;;0.47;0.13;;;;;;;20.18;100.00;100565.88;4947802;28;20184;-66
2023/09/13 07:19:11;;;;;;;0.30;0.30;;;;;;;20.18;100.00;100565.88;4949903;28;20035;-66
2023/09/13 07:21:36;;;;;;;0.00;0.00;;;;;;;20.14;100.00;100565.94;4963554;28;20053;-66
2023/09/13 07:24:02;;;;;;;1.75;0.08;;;;;;;20.17;100.00;100569.81;5029305;28;20072;-65
2023/09/13 07:26:27;;;;;;;0.20;0.00;;;;;;;20.15;100.00;100558.53;5032508;28;20033;-65
2023/09/13 07:28:53;;;;;;;0.00;0.00;;;;;;;20.16;100.00;100571.00;5034458;28;20028;-66
2023/09/13 07:31:18;;;;;;;0.00;0.00;;;;;;;20.20;100.00;100577.97;5029460;28;20041;-65
2023/09/13 07:33:43;;;;;;;0.00;0.00;;;;;;;20.12;100.00;100581.22;5032488;28;20430;-65
2023/09/13 07:36:09;;;;;;;0.17;0.05;;;;;;;20.11;100.00;100585.91;5029535;28;20041;-65
2023/09/13 07:38:35;;;;;;;1.45;0.10;;;;;;;20.14;100.00;100581.59;5036617;28;20029;-66
2023/09/13 07:41:00;;;;;;;0.25;0.20;;;;;;;20.13;99.80;100596.47;5031957;28;20037;-65
2023/09/13 07:43:26;;;;;;;0.00;0.00;;;;;;;20.00;99.49;100601.78;5024016;28;20026;-65
2023/09/13 07:45:52;;;;;;;1.73;0.20;;;;;;;19.97;99.47;100601.84;5030758;28;20033;-65
2023/09/13 07:48:18;;;;;;;0.45;0.28;;;;;;;19.95;98.94;100599.53;5030483;28;20390;-65
2023/09/13 07:50:44;;;;;;;0.85;0.30;;;;;;;19.75;98.64;100606.94;5025631;28;20386;-66
2023/09/13 07:53:12;;;;;;;0.90;0.43;;;;;;;19.79;98.56;100607.63;5021377;28;20212;-65
2023/09/13 07:55:39;;;;;;;0.17;0.17;;;;;;;19.69;98.64;100622.25;5027295;28;20405;-65
2023/09/13 07:58:06;;;;;;;0.88;0.52;;;;;;;19.64;98.45;100617.28;5028192;28;20037;-65
2023/09/13 08:00:32;;;;;;;0.10;0.10;;;;;;;19.61;99.15;100618.88;5029423;28;20413;-65
2023/09/13 08:03:01;;;;;;;0.40;0.40;;;;;;;19.71;99.19;100619.88;5033135;28;20025;-65
2023/09/13 08:05:27;;;;;;;0.90;0.50;;;;;;;19.68;98.50;100632.44;5033667;28;20029;-65
2023/09/13 08:08:15;;;;;;;1.38;0.93;;;;;;;19.68;97.92;100637.91;5034310;28;20037;-65
2023/09/13 08:10:41;;;;;;;0.38;0.30;;;;;;;19.66;98.43;100628.56;4947281;29;20075;-66
2023/09/13 08:13:09;;;;;;;2.67;0.68;;;;;;;19.47;97.61;100640.97;4949546;28;20043;-66
2023/09/13 08:15:35;;;;;;;0.43;0.38;;;;;;;19.60;98.27;100644.69;4943733;29;20057;-65
2023/09/13 08:18:04;;;;;;;0.68;0.30;;;;;;;19.64;98.15;100650.84;4950610;29;20043;-65
2023/09/13 08:20:30;;;;;;;0.60;0.45;;;;;;;19.62;98.62;100655.97;4950291;29;20042;-66
2023/09/13 08:22:59;;;;;;;1.45;0.30;;;;;;;19.70;98.39;100662.81;4946169;29;20058;-66
2023/09/13 08:25:24;;;;;;;2.08;0.80;;;;;;;19.69;98.15;100665.97;4949520;29;20049;-66
2023/09/13 08:27:53;;;;;;;0.28;0.22;;;;;;;19.68;97.90;100672.66;4943626;28;20039;-66
2023/09/13 08:30:18;;;;;;;0.38;0.28;;;;;;;19.68;97.78;100683.59;4947601;28;20047;-65
2023/09/13 08:32:44;;;;;;;1.25;0.47;;;;;;;19.58;97.08;100682.56;4946162;29;20046;-65
2023/09/13 08:35:09;;;;;;;0.22;0.22;;;;;;;19.47;97.68;100681.94;4948155;29;20289;-65
2023/09/13 08:37:35;;;;;;;0.75;0.40;;;;;;;19.51;97.84;100679.19;4950799;29;20499;-65
2023/09/13 08:40:00;;;;;;;0.60;0.50;;;;;;;19.50;97.40;100686.59;4950019;28;20034;-66
2023/09/13 08:42:28;;;;;;;0.52;0.30;;;;;;;19.50;97.73;100688.56;4949819;29;20126;-65
2023/09/13 08:44:54;;;;;;;0.57;0.30;;;;;;;19.56;98.08;100692.38;4948647;29;20050;-66
2023/09/13 08:47:22;;;;;;;0.50;0.38;;;;;;;19.63;98.73;100692.25;4975737;28;20045;-65
2023/09/13 08:49:49;;;;;;;1.08;0.32;;;;;;;19.68;98.55;100708.19;5023953;28;20037;-66
2023/09/13 08:52:16;;;;;;;0.43;0.43;;;;;;;19.60;99.12;100707.53;5026761;28;20041;-66
2023/09/13 08:54:45;;;;;;;1.25;0.60;;;;;;;19.69;98.94;100706.97;5026615;28;20104;-66
2023/09/13 08:57:11;;;;;;;2.45;0.63;;;;;;;19.73;99.37;100719.41;5029517;28;20402;-66
2023/09/13 08:59:37;;;;;;;2.80;0.65;;;;;;;19.84;99.05;100713.75;5029370;28;20045;-66
2023/09/13 09:02:04;;;;;;;6.50;1.60;;;;;;;19.88;98.07;100714.47;5023152;28;20071;-65
2023/09/13 09:04:30;;;;;;;2.30;0.57;;;;;;;19.93;98.38;100722.22;5028038;28;20038;-65
2023/09/13 09:06:57;;;;;;;2.05;0.60;;;;;;;19.92;98.43;100717.94;5025726;28;20140;-66
2023/09/13 09:09:43;;;;;;;1.00;0.68;;;;;;;19.89;98.73;100715.25;5024133;28;20041;-65
2023/09/13 09:12:11;;;;;;;0.90;0.43;;;;;;;19.89;99.49;100709.78;4964455;28;20064;-66
2023/09/13 09:14:37;;;;;;;1.08;0.50;;;;;;;19.96;99.32;100724.09;4966141;28;20120;-66
2023/09/13 09:17:04;;;;;;;0.57;0.40;;;;;;;20.04;99.15;100725.53;4960213;28;20046;-65
2023/09/13 09:19:29;;;;;;;1.00;0.45;;;;;;;20.12;98.36;100732.44;4965505;28;20066;-65
2023/09/13 09:21:58;;;;;;;0.20;0.20;;;;;;;20.18;98.32;100730.78;4961492;28;20074;-66
2023/09/13 09:24:23;;;;;;;1.98;0.70;;;;;;;20.27;98.46;100733.75;4964474;28;20117;-65
2023/09/13 09:26:49;;;;;;;1.38;0.55;;;;;;;20.30;97.73;100734.88;4966656;28;20129;-65
2023/09/13 09:29:16;;;;;;;1.38;0.57;;;;;;;20.34;97.77;100727.38;4959058;28;20490;-66
2023/09/13 09:31:42;;;;;;;1.42;0.50;;;;;;;20.31;97.44;100731.72;4963234;28;20093;-66
2023/09/13 09:34:10;;;;;;;1.73;0.47;;;;;;;20.37;98.02;100729.28;4962756;28;20487;-65
2023/09/13 09:36:43;;;;;;;0.30;0.30;;;;;;;20.33;96.90;100734.81;4964758;28;20043;-65
2023/09/13 09:39:09;;;;;;;0.85;0.55;;;;;;;20.33;96.90;100744.97;4949705;28;20578;-66
2023/09/13 09:41:36;;;;;;;1.27;0.55;;;;;;;20.37;96.38;100740.22;4965287;28;20035;-66
2023/09/13 09:44:02;;;;;;;0.73;0.30;;;;;;;20.44;96.56;100734.63;4963026;28;20050;-65
2023/09/13 09:46:29;;;;;;;2.33;0.52;;;;;;;20.52;96.20;100741.50;4965659;28;20089;-65
2023/09/13 09:48:55;;;;;;;0.80;0.50;;;;;;;20.58;96.42;100739.81;4989268;28;20037;-65
2023/09/13 10:04:51;;;;;;;1.13;0.45;;;;;;;20.71;96.08;100770.09;5508678;22;20058;-67
2023/09/13 10:07:16;;;;;;;1.08;0.57;;;;;;;20.67;95.96;100764.69;4974830;28;20038;-67
2023/09/13 10:09:46;;;;;;;0.30;0.30;;;;;;;20.65;95.79;100767.81;4982414;28;20041;-67
2023/09/13 10:12:17;;;;;;;2.55;0.50;;;;;;;20.63;95.48;100770.22;4990063;28;20058;-67
2023/09/13 10:14:45;;;;;;;1.38;0.60;;;;;;;20.56;96.00;100775.03;4982498;28;20093;-67
2023/09/13 10:17:11;;;;;;;2.78;0.45;;;;;;;20.53;96.03;100776.69;4987549;28;20034;-67
2023/09/13 10:19:37;;;;;;;1.73;0.55;;;;;;;20.48;95.94;100785.34;4989893;28;20061;-66
2023/09/13 10:22:03;;;;;;;0.70;0.38;;;;;;;20.45;96.52;100782.69;4985922;28;20039;-66
2023/09/13 10:24:37;;;;;;;0.95;0.57;;;;;;;20.45;96.83;100788.16;4987131;28;20026;-66
2023/09/13 10:27:06;;;;;;;0.95;0.55;;;;;;;20.37;97.30;100792.22;4988192;28;20038;-65
2023/09/13 10:29:46;;;;;;;1.90;0.32;;;;;;;20.33;97.05;100799.69;4987347;28;20034;-66
2023/09/13 10:32:16;;;;;;;2.67;0.45;;;;;;;20.36;97.65;100790.66;4989846;28;20539;-66
2023/09/13 10:35:01;;;;;;;0.60;0.30;;;;;;;20.35;97.08;100792.63;4988066;28;20069;-66
2023/09/13 10:37:35;;;;;;;1.27;0.50;;;;;;;20.32;96.51;100793.47;4983341;28;20034;-66
2023/09/13 10:40:10;;;;;;;2.60;0.20;;;;;;;20.34;96.80;100801.25;4985849;28;20052;-65
2023/09/13 10:42:40;;;;;;;2.35;0.60;;;;;;;20.31;96.27;100804.81;4984850;28;20395;-66
2023/09/13 10:45:09;;;;;;;1.55;0.52;;;;;;;20.36;96.62;100802.38;4981044;28;20085;-66
2023/09/13 10:47:37;;;;;;;3.17;0.68;;;;;;;20.44;96.30;100803.03;4975199;28;20129;-66
2023/09/13 10:50:06;;;;;;;1.63;0.60;;;;;;;20.42;96.68;100802.69;4972532;28;20050;-65
2023/09/13 10:52:34;;;;;;;0.95;0.55;;;;;;;20.48;96.32;100807.25;4986346;28;20038;-65
2023/09/13 10:55:00;;;;;;;1.23;0.22;;;;;;;20.47;96.00;100804.94;4991721;28;20018;-66
2023/09/13 10:57:26;;;;;;;1.23;0.47;;;;;;;20.49;96.08;100816.22;4986961;28;20065;-66
2023/09/13 10:59:52;;;;;;;1.50;0.55;;;;;;;20.44;96.58;100812.00;4988025;28;20034;-66
2023/09/13 11:02:21;;;;;;;1.65;1.02;;;;;;;20.43;96.35;100807.72;4985796;28;20045;-65
2023/09/13 11:04:47;;;;;;;1.85;0.40;;;;;;;20.44;96.21;100811.25;4992824;28;20042;-64
2023/09/13 11:07:14;;;;;;;1.25;0.65;;;;;;;20.46;96.40;100828.03;4993787;28;20430;-65
2023/09/13 11:09:40;;;;;;;1.88;0.75;;;;;;;20.48;95.91;100839.31;4990206;28;20486;-65
2023/09/13 11:12:05;;;;;;;1.00;0.50;;;;;;;20.36;95.84;100842.66;4989876;28;20045;-64
2023/09/13 11:14:31;;;;;;;1.17;0.80;;;;;;;20.34;95.92;100839.56;4988960;28;20041;-64
2023/09/13 11:17:09;;;;;;;1.77;0.68;;;;;;;20.31;96.07;100851.31;4987697;28;20092;-64
2023/09/13 11:19:34;;;;;;;1.10;0.28;;;;;;;20.22;96.17;100849.13;4998390;28;20034;-64
2023/09/13 11:22:02;;;;;;;3.63;0.50;;;;;;;20.21;96.45;100849.56;4988796;28;20044;-66
2023/09/13 11:24:35;;;;;;;2.85;0.57;;;;;;;20.21;96.82;100857.75;4990391;28;20549;-65
2023/09/13 11:27:16;;;;;;;0.40;0.40;;;;;;;20.24;97.38;100860.44;4987154;28;20033;-66
2023/09/13 11:29:43;;;;;;;0.57;0.52;;;;;;;20.31;97.45;100868.53;4985887;28;20034;-66
2023/09/13 11:32:16;;;;;;;1.73;0.45;;;;;;;20.32;97.89;100867.34;4981667;28;20042;-66
2023/09/13 11:34:42;;;;;;;0.35;0.35;;;;;;;20.40;97.44;100881.69;4985265;28;20035;-66